createdAt,value
2018-08-11T00:00:24.779Z,15.30
2018-08-11T00:02:53.037Z,15.30
2018-08-11T00:05:21.335Z,15.40
2018-08-11T00:07:50.014Z,15.30
2018-08-11T00:10:18.203Z,15.30
2018-08-11T00:12:46.435Z,15.20
2018-08-11T00:15:15.950Z,15.10
2018-08-11T00:17:44.264Z,15.10
2018-08-11T00:20:14.035Z,15.10
2018-08-11T00:22:42.969Z,15.00
2018-08-11T00:25:12.961Z,15.00
2018-08-11T00:27:41.129Z,15.00
2018-08-11T00:30:12.117Z,15.00
2018-08-11T00:32:40.356Z,15.00
2018-08-11T00:35:09.544Z,15.00
2018-08-11T00:37:37.745Z,15.00
2018-08-11T00:40:08.988Z,15.00
2018-08-11T00:42:37.326Z,15.00
2018-08-11T00:45:07.376Z,14.90
2018-08-11T00:47:35.579Z,14.90
2018-08-11T00:50:04.780Z,14.90
2018-08-11T00:52:33.210Z,14.90
2018-08-11T00:55:01.897Z,14.90
2018-08-11T00:57:30.103Z,15.00
2018-08-11T00:59:58.592Z,15.00
2018-08-11T01:02:26.840Z,15.10
2018-08-11T01:04:55.038Z,15.00
2018-08-11T01:07:23.197Z,15.10
2018-08-11T01:09:51.469Z,15.10
2018-08-11T01:12:19.619Z,15.10
2018-08-11T01:14:47.761Z,15.10
2018-08-11T01:17:15.908Z,15.10
2018-08-11T01:19:44.101Z,15.10
2018-08-11T01:22:12.250Z,15.10
2018-08-11T01:24:40.413Z,15.10
2018-08-11T01:27:08.588Z,15.10
2018-08-11T01:29:36.769Z,15.20
2018-08-11T01:32:04.963Z,15.10
2018-08-11T01:34:33.144Z,15.20
2018-08-11T01:37:01.288Z,15.20
2018-08-11T01:39:29.480Z,15.30
2018-08-11T01:41:57.681Z,15.30
2018-08-11T01:44:25.881Z,15.30
2018-08-11T01:46:54.012Z,15.40
2018-08-11T01:49:22.191Z,15.40
2018-08-11T01:51:50.457Z,15.30
2018-08-11T01:54:18.659Z,15.30
2018-08-11T01:56:46.833Z,15.30
2018-08-11T01:59:15.034Z,15.20
2018-08-11T02:01:43.184Z,15.20
2018-08-11T02:04:11.411Z,15.20
2018-08-11T02:06:39.575Z,15.20
2018-08-11T02:09:09.348Z,15.10
2018-08-11T02:11:37.481Z,15.10
2018-08-11T02:14:05.633Z,15.10
2018-08-11T02:16:33.924Z,15.00
2018-08-11T02:19:02.087Z,15.00
2018-08-11T02:21:30.230Z,15.00
2018-08-11T02:23:58.431Z,14.90
2018-08-11T02:26:26.560Z,15.00
2018-08-11T02:28:54.693Z,15.00
2018-08-11T02:31:22.821Z,15.10
2018-08-11T02:33:50.976Z,15.20
2018-08-11T02:36:19.131Z,15.20
2018-08-11T02:38:47.289Z,15.30
2018-08-11T02:41:15.444Z,15.30
2018-08-11T02:43:43.620Z,15.30
2018-08-11T02:46:11.792Z,15.30
2018-08-11T02:48:39.924Z,15.20
2018-08-11T02:51:08.058Z,15.30
2018-08-11T02:53:36.240Z,15.30
2018-08-11T02:56:04.388Z,15.40
2018-08-11T02:58:32.536Z,15.40
2018-08-11T03:01:00.719Z,15.40
2018-08-11T03:03:28.892Z,15.50
2018-08-11T03:05:57.053Z,15.60
2018-08-11T03:08:25.230Z,15.80
2018-08-11T03:10:53.369Z,15.90
2018-08-11T03:13:23.785Z,16.00
2018-08-11T03:15:51.949Z,16.20
2018-08-11T03:18:20.086Z,16.30
2018-08-11T03:20:48.218Z,16.40
2018-08-11T03:23:16.378Z,16.50
2018-08-11T03:25:44.541Z,16.60
2018-08-11T03:28:12.693Z,16.70
2018-08-11T03:30:40.813Z,16.70
2018-08-11T03:33:08.934Z,16.80
2018-08-11T03:35:37.101Z,16.80
2018-08-11T03:38:05.239Z,16.80
2018-08-11T03:40:33.416Z,16.80
2018-08-11T03:43:01.568Z,16.80
2018-08-11T03:45:29.724Z,16.80
2018-08-11T03:47:57.901Z,16.90
2018-08-11T03:50:26.060Z,16.90
2018-08-11T03:52:54.236Z,16.90
2018-08-11T03:55:22.401Z,17.00
2018-08-11T03:57:50.567Z,17.00
2018-08-11T04:00:18.697Z,17.00
2018-08-11T04:02:46.867Z,17.10
2018-08-11T04:05:15.014Z,17.10
2018-08-11T04:07:43.159Z,17.10
2018-08-11T04:10:11.303Z,17.10
2018-08-11T04:12:39.458Z,17.00
2018-08-11T04:15:07.725Z,17.10
2018-08-11T04:17:38.547Z,17.10
2018-08-11T04:20:07.846Z,17.10
2018-08-11T04:22:36.144Z,17.10
2018-08-11T04:25:04.943Z,17.00
2018-08-11T04:27:33.196Z,16.90
2018-08-11T04:30:01.580Z,16.70
2018-08-11T04:32:29.758Z,16.60
2018-08-11T04:34:57.923Z,16.60
2018-08-11T04:37:26.327Z,16.50
2018-08-11T04:39:54.506Z,16.30
2018-08-11T04:42:22.736Z,16.00
2018-08-11T04:44:50.999Z,15.80
2018-08-11T04:47:19.130Z,15.70
2018-08-11T04:49:47.312Z,15.60
2018-08-11T04:52:15.472Z,15.40
2018-08-11T04:54:43.664Z,15.40
2018-08-11T04:57:11.913Z,15.30
2018-08-11T04:59:40.063Z,15.20
2018-08-11T05:02:08.287Z,15.10
2018-08-11T05:04:36.571Z,15.00
2018-08-11T05:07:05.004Z,15.10
2018-08-11T05:09:33.168Z,15.10
2018-08-11T05:12:01.311Z,15.10
2018-08-11T05:14:29.466Z,15.20
2018-08-11T05:16:57.624Z,15.20
2018-08-11T05:19:25.810Z,15.10
2018-08-11T05:21:53.985Z,15.10
2018-08-11T05:24:22.205Z,15.00
2018-08-11T05:26:50.343Z,15.00
2018-08-11T05:29:18.504Z,15.10
2018-08-11T05:31:46.687Z,15.10
2018-08-11T05:34:14.830Z,15.00
2018-08-11T05:36:42.994Z,15.10
2018-08-11T05:39:13.211Z,15.10
2018-08-11T05:41:41.486Z,15.10
2018-08-11T05:44:09.564Z,15.20
2018-08-11T05:46:38.304Z,15.20
2018-08-11T05:49:06.792Z,15.20
2018-08-11T05:51:35.116Z,15.30
2018-08-11T05:54:03.351Z,15.30
2018-08-11T05:56:31.610Z,15.50
2018-08-11T05:58:59.882Z,15.60
2018-08-11T06:01:28.116Z,15.70
2018-08-11T06:03:56.334Z,15.80
2018-08-11T06:06:24.643Z,15.80
2018-08-11T06:08:52.920Z,15.90
2018-08-11T06:11:21.130Z,15.90
2018-08-11T06:13:49.271Z,15.90
2018-08-11T06:16:17.439Z,15.80
2018-08-11T06:18:45.586Z,15.70
2018-08-11T06:21:14.033Z,15.60
2018-08-11T06:23:42.215Z,15.60
2018-08-11T06:26:10.472Z,15.60
2018-08-11T06:28:38.695Z,15.60
2018-08-11T06:31:06.916Z,15.60
2018-08-11T06:33:35.823Z,15.60
2018-08-11T06:36:04.109Z,15.60
2018-08-11T06:38:32.338Z,15.60
2018-08-11T06:41:00.739Z,15.60
2018-08-11T06:43:28.688Z,15.60
2018-08-11T06:45:56.896Z,15.50
2018-08-11T06:48:25.308Z,15.50
2018-08-11T06:50:53.521Z,15.50
2018-08-11T06:53:21.722Z,15.50
2018-08-11T06:55:49.948Z,15.60
2018-08-11T06:58:18.165Z,15.70
2018-08-11T07:00:46.331Z,15.80
2018-08-11T07:03:14.487Z,15.90
2018-08-11T07:05:42.749Z,16.00
2018-08-11T07:08:10.961Z,16.20
2018-08-11T07:10:39.206Z,16.30
2018-08-11T07:13:07.498Z,16.60
2018-08-11T07:15:35.684Z,16.70
2018-08-11T07:18:03.842Z,16.80
2018-08-11T07:20:32.053Z,17.00
2018-08-11T07:23:00.753Z,17.20
2018-08-11T07:25:28.958Z,17.30
2018-08-11T07:27:57.163Z,17.40
2018-08-11T07:30:25.368Z,17.40
2018-08-11T07:32:53.637Z,17.40
2018-08-11T07:35:21.942Z,17.30
2018-08-11T07:37:50.133Z,17.30
2018-08-11T07:40:18.332Z,17.40
2018-08-11T07:42:46.526Z,17.50
2018-08-11T07:45:14.716Z,17.60
2018-08-11T07:47:42.919Z,17.70
2018-08-11T07:50:11.136Z,17.80
2018-08-11T07:52:39.264Z,17.80
2018-08-11T07:55:07.532Z,17.80
2018-08-11T07:57:36.132Z,17.80
2018-08-11T08:00:05.975Z,17.80
2018-08-11T08:02:34.168Z,17.70
2018-08-11T08:05:02.385Z,17.80
2018-08-11T08:07:30.610Z,17.90
2018-08-11T08:09:58.794Z,17.90
2018-08-11T08:12:27.044Z,18.00
2018-08-11T08:14:55.418Z,18.00
2018-08-11T08:17:23.571Z,18.00
2018-08-11T08:19:51.867Z,18.10
2018-08-11T08:22:20.781Z,18.20
2018-08-11T08:24:49.100Z,18.30
2018-08-11T08:27:17.348Z,18.40
2018-08-11T08:29:45.596Z,18.60
2018-08-11T08:32:13.912Z,18.80
2018-08-11T08:34:42.195Z,19.10
2018-08-11T08:37:10.479Z,19.10
2018-08-11T08:39:38.919Z,19.00
2018-08-11T08:42:07.369Z,18.90
2018-08-11T08:44:35.699Z,18.90
2018-08-11T08:47:03.991Z,18.90
2018-08-11T08:49:32.299Z,19.00
2018-08-11T08:52:00.507Z,19.20
2018-08-11T08:54:28.708Z,19.30
2018-08-11T08:56:58.649Z,19.50
2018-08-11T08:59:26.859Z,19.60
2018-08-11T09:01:55.097Z,19.50
2018-08-11T09:04:23.355Z,19.50
2018-08-11T09:06:51.537Z,19.50
2018-08-11T09:09:19.749Z,19.70
2018-08-11T09:11:47.971Z,19.90
2018-08-11T09:14:16.249Z,20.10
2018-08-11T09:16:44.477Z,20.30
2018-08-11T09:19:12.691Z,20.50
2018-08-11T09:21:40.939Z,20.50
2018-08-11T09:24:09.734Z,20.60
2018-08-11T09:26:38.199Z,20.60
2018-08-11T09:29:06.675Z,20.60
2018-08-11T09:31:34.903Z,20.50
2018-08-11T09:34:03.399Z,20.40
2018-08-11T09:36:31.610Z,20.50
2018-08-11T09:39:00.040Z,20.30
2018-08-11T09:41:28.635Z,20.00
2018-08-11T09:43:56.895Z,19.70
2018-08-11T09:46:25.188Z,19.50
2018-08-11T09:48:53.417Z,19.40
2018-08-11T09:51:22.684Z,19.40
2018-08-11T09:53:51.023Z,19.50
2018-08-11T09:56:19.297Z,19.40
2018-08-11T09:58:47.602Z,19.40
2018-08-11T10:01:21.106Z,19.20
2018-08-11T10:03:49.853Z,19.00
2018-08-11T10:06:18.189Z,18.50
2018-08-11T10:08:46.581Z,18.10
2018-08-11T10:11:15.030Z,17.70
2018-08-11T10:13:43.433Z,17.40
2018-08-11T10:16:12.013Z,17.10
2018-08-11T10:18:41.164Z,16.80
2018-08-11T10:21:09.402Z,16.60
2018-08-11T10:23:38.365Z,16.60
2018-08-11T10:26:06.824Z,16.60
2018-08-11T10:28:35.000Z,16.60
2018-08-11T10:31:03.418Z,16.70
2018-08-11T10:33:32.008Z,16.80
2018-08-11T10:36:00.529Z,17.00
2018-08-11T10:38:29.282Z,17.30
2018-08-11T10:40:57.555Z,17.60
2018-08-11T10:43:26.170Z,17.80
2018-08-11T10:45:54.411Z,17.90
2018-08-11T10:48:22.697Z,18.00
2018-08-11T10:50:50.936Z,18.10
2018-08-11T10:53:19.306Z,18.20
2018-08-11T10:55:47.608Z,18.20
2018-08-11T10:58:16.014Z,18.20
2018-08-11T11:00:44.263Z,18.30
2018-08-11T11:03:12.484Z,18.50
2018-08-11T11:05:40.735Z,18.80
2018-08-11T11:08:08.992Z,19.00
2018-08-11T11:10:37.256Z,19.20
2018-08-11T11:13:05.476Z,19.20
2018-08-11T11:15:33.686Z,19.30
2018-08-11T11:18:01.943Z,19.40
2018-08-11T11:20:30.157Z,19.40
2018-08-11T11:22:58.493Z,19.40
2018-08-11T11:25:26.751Z,19.40
2018-08-11T11:27:54.936Z,19.50
2018-08-11T11:30:23.446Z,19.50
2018-08-11T11:32:51.663Z,19.70
2018-08-11T11:35:19.956Z,19.60
2018-08-11T11:37:48.253Z,19.60
2018-08-11T11:40:16.466Z,19.70
2018-08-11T11:42:44.892Z,19.70
2018-08-11T11:45:13.763Z,19.70
2018-08-11T11:47:41.977Z,19.90
2018-08-11T11:50:10.229Z,20.00
2018-08-11T11:52:38.526Z,20.00
2018-08-11T11:55:06.801Z,19.90
2018-08-11T11:57:35.037Z,19.80
2018-08-11T12:00:03.520Z,19.70
2018-08-11T12:02:31.593Z,19.50
2018-08-11T12:04:59.798Z,19.40
2018-08-11T12:07:28.023Z,19.30
2018-08-11T12:09:56.400Z,19.40
2018-08-11T12:12:24.793Z,19.20
2018-08-11T12:14:53.013Z,19.40
2018-08-11T12:17:21.199Z,19.50
2018-08-11T12:19:49.773Z,19.70
2018-08-11T12:22:17.988Z,19.90
2018-08-11T12:24:46.355Z,20.00
2018-08-11T12:27:14.705Z,19.90
2018-08-11T12:29:42.972Z,19.80
2018-08-11T12:32:11.190Z,19.70
2018-08-11T12:34:39.420Z,19.40
2018-08-11T12:37:07.643Z,19.00
2018-08-11T12:39:35.843Z,18.70
2018-08-11T12:42:04.179Z,18.60
2018-08-11T12:44:32.390Z,18.60
2018-08-11T12:47:00.664Z,18.70
2018-08-11T12:49:28.887Z,18.80
2018-08-11T12:51:57.199Z,18.80
2018-08-11T12:54:25.402Z,18.60
2018-08-11T12:56:53.579Z,18.50
2018-08-11T12:59:21.822Z,18.40
2018-08-11T13:01:50.183Z,18.20
2018-08-11T13:04:18.419Z,18.00
2018-08-11T13:06:46.667Z,17.90
2018-08-11T13:09:14.991Z,17.70
2018-08-11T13:11:43.231Z,17.30
2018-08-11T13:14:11.507Z,17.00
2018-08-11T13:16:39.810Z,16.80
2018-08-11T13:19:08.140Z,16.70
2018-08-11T13:21:36.689Z,16.70
2018-08-11T13:24:04.908Z,16.60
2018-08-11T13:26:33.184Z,16.50
2018-08-11T13:29:01.424Z,16.50
2018-08-11T13:31:29.703Z,16.50
2018-08-11T13:33:57.947Z,16.60
2018-08-11T13:36:26.156Z,16.60
2018-08-11T13:38:54.337Z,16.70
2018-08-11T13:41:22.575Z,16.90
2018-08-11T13:43:51.160Z,17.00
2018-08-11T13:46:19.655Z,17.00
2018-08-11T13:48:47.975Z,17.00
2018-08-11T13:51:16.317Z,17.10
2018-08-11T13:53:44.874Z,17.10
2018-08-11T13:56:13.296Z,17.20
2018-08-11T13:58:41.644Z,17.50
2018-08-11T14:01:10.232Z,17.70
2018-08-11T14:03:38.531Z,17.90
2018-08-11T14:06:06.877Z,18.20
2018-08-11T14:08:35.121Z,18.40
2018-08-11T14:11:03.558Z,18.50
2018-08-11T14:13:32.055Z,18.50
2018-08-11T14:16:00.336Z,18.60
2018-08-11T14:18:28.699Z,18.80
2018-08-11T14:20:57.112Z,19.00
2018-08-11T14:23:25.889Z,19.10
2018-08-11T14:25:54.685Z,19.20
2018-08-11T14:28:23.306Z,19.40
2018-08-11T14:30:51.688Z,19.60
2018-08-11T14:33:20.247Z,19.90
2018-08-11T14:35:48.692Z,20.00
2018-08-11T14:38:17.133Z,20.00
2018-08-11T14:40:45.363Z,19.90
2018-08-11T14:43:13.971Z,19.20
2018-08-11T14:45:42.612Z,18.10
2018-08-11T14:48:11.274Z,17.00
2018-08-11T14:50:39.693Z,16.20
2018-08-11T14:53:07.772Z,15.60
2018-08-11T14:55:36.048Z,15.20
2018-08-11T14:58:04.503Z,15.00
2018-08-11T15:00:32.739Z,14.80
2018-08-11T15:03:01.618Z,14.80
2018-08-11T15:05:30.021Z,14.80
2018-08-11T15:07:58.221Z,14.90
2018-08-11T15:10:26.457Z,15.00
2018-08-11T15:12:54.646Z,15.00
2018-08-11T15:15:22.899Z,15.10
2018-08-11T15:17:51.164Z,15.20
2018-08-11T15:20:20.240Z,15.20
2018-08-11T15:22:48.515Z,15.20
2018-08-11T15:25:16.727Z,15.20
2018-08-11T15:27:44.968Z,15.30
2018-08-11T15:30:13.209Z,15.50
2018-08-11T15:32:42.064Z,15.60
2018-08-11T15:35:10.369Z,15.70
2018-08-11T15:37:38.553Z,15.70
2018-08-11T15:40:06.991Z,15.80
2018-08-11T15:42:35.463Z,15.90
2018-08-11T15:45:03.777Z,15.90
2018-08-11T15:47:32.160Z,15.90
2018-08-11T15:50:00.404Z,15.90
2018-08-11T15:52:28.664Z,16.00
2018-08-11T15:54:56.985Z,16.00
2018-08-11T15:57:25.892Z,16.00
2018-08-11T15:59:54.169Z,16.00
2018-08-11T16:02:22.446Z,16.00
2018-08-11T16:04:50.871Z,16.00
2018-08-11T16:07:19.178Z,16.10
2018-08-11T16:09:47.387Z,16.10
2018-08-11T16:12:15.787Z,16.10
2018-08-11T16:14:44.064Z,16.20
2018-08-11T16:17:12.293Z,16.20
2018-08-11T16:19:40.497Z,16.20
2018-08-11T16:22:08.700Z,16.10
2018-08-11T16:24:36.977Z,16.10
2018-08-11T16:27:05.352Z,16.20
2018-08-11T16:29:33.692Z,16.30
2018-08-11T16:32:01.942Z,16.30
2018-08-11T16:34:30.277Z,16.40
2018-08-11T16:36:58.647Z,16.50
2018-08-11T16:39:26.988Z,16.60
2018-08-11T16:41:55.199Z,16.60
2018-08-11T16:44:23.527Z,16.60
2018-08-11T16:46:51.985Z,16.60
2018-08-11T16:49:20.243Z,16.60
2018-08-11T16:51:48.504Z,16.60
2018-08-11T16:54:16.944Z,16.60
2018-08-11T16:56:45.308Z,16.60
2018-08-11T16:59:13.539Z,16.60
2018-08-11T17:01:41.759Z,16.50
2018-08-11T17:04:09.997Z,16.60
2018-08-11T17:06:39.216Z,16.60
2018-08-11T17:09:09.489Z,16.70
2018-08-11T17:11:37.760Z,16.70
2018-08-11T17:14:06.522Z,16.80
2018-08-11T17:16:34.826Z,16.80
2018-08-11T17:19:03.212Z,16.70
2018-08-11T17:21:31.502Z,16.70
2018-08-11T17:24:00.127Z,16.70
2018-08-11T17:26:28.377Z,16.70
2018-08-11T17:28:56.684Z,16.80
2018-08-11T17:31:25.519Z,16.80
2018-08-11T17:33:53.818Z,16.90
2018-08-11T17:36:22.236Z,16.90
2018-08-11T17:38:50.749Z,17.00
2018-08-11T17:41:19.044Z,17.00
2018-08-11T17:43:47.513Z,17.00
2018-08-11T17:46:16.058Z,17.00
2018-08-11T17:48:44.344Z,16.90
2018-08-11T17:51:12.804Z,16.90
2018-08-11T17:53:41.376Z,16.90
2018-08-11T17:56:09.965Z,16.90
2018-08-11T17:58:38.399Z,16.90
2018-08-11T18:01:06.749Z,17.00
2018-08-11T18:03:35.428Z,17.00
2018-08-11T18:06:03.721Z,16.90
2018-08-11T18:08:31.960Z,16.90
2018-08-11T18:11:00.528Z,16.90
2018-08-11T18:13:28.918Z,16.90
2018-08-11T18:15:57.415Z,16.80
2018-08-11T18:18:26.035Z,16.80
2018-08-11T18:20:55.141Z,16.70
2018-08-11T18:23:25.324Z,16.80
2018-08-11T18:25:55.380Z,16.70
2018-08-11T18:28:24.104Z,16.70
2018-08-11T18:30:53.298Z,16.70
2018-08-11T18:33:21.684Z,16.70
2018-08-11T18:35:50.031Z,16.60
2018-08-11T18:38:19.501Z,16.60
2018-08-11T18:40:48.156Z,16.50
2018-08-11T18:43:16.663Z,16.50
2018-08-11T18:45:45.092Z,16.40
2018-08-11T18:48:13.497Z,16.40
2018-08-11T18:50:42.026Z,16.40
2018-08-11T18:53:10.260Z,16.40
2018-08-11T18:55:38.762Z,16.30
2018-08-11T18:58:07.130Z,16.30
2018-08-11T19:00:35.483Z,16.30
2018-08-11T19:03:03.752Z,16.20
2018-08-11T19:05:32.053Z,16.20
2018-08-11T19:08:02.173Z,16.20
2018-08-11T19:10:30.918Z,16.10
2018-08-11T19:13:02.201Z,16.10
2018-08-11T19:15:30.746Z,16.00
2018-08-11T19:18:01.212Z,16.00
2018-08-11T19:20:29.747Z,16.00
2018-08-11T19:22:58.318Z,16.00
2018-08-11T19:25:26.860Z,16.00
2018-08-11T19:27:55.040Z,15.90
2018-08-11T19:30:23.766Z,15.90
2018-08-11T19:32:52.307Z,15.80
2018-08-11T19:35:22.915Z,15.80
2018-08-11T19:37:51.445Z,15.70
2018-08-11T19:40:20.915Z,15.70
2018-08-11T19:42:49.241Z,15.70
2018-08-11T19:45:17.558Z,15.60
2018-08-11T19:47:46.558Z,15.60
2018-08-11T19:50:14.803Z,15.60
2018-08-11T19:52:43.677Z,15.50
2018-08-11T19:55:12.354Z,15.50
2018-08-11T19:57:40.686Z,15.50
2018-08-11T20:00:12.503Z,15.30
2018-08-11T20:02:41.692Z,15.40
2018-08-11T20:05:12.377Z,15.30
2018-08-11T20:07:40.921Z,15.30
2018-08-11T20:10:09.336Z,15.30
2018-08-11T20:12:38.457Z,15.40
2018-08-11T20:15:08.394Z,15.40
2018-08-11T20:17:36.936Z,15.50
2018-08-11T20:20:06.642Z,15.40
2018-08-11T20:22:34.961Z,15.50
2018-08-11T20:25:04.559Z,15.40
2018-08-11T20:27:32.791Z,15.40
2018-08-11T20:30:01.752Z,15.40
2018-08-11T20:32:30.061Z,15.30
2018-08-11T20:34:58.844Z,15.30
2018-08-11T20:37:27.240Z,15.20
2018-08-11T20:39:55.468Z,15.20
2018-08-11T20:42:24.576Z,15.10
2018-08-11T20:44:52.959Z,15.10
2018-08-11T20:47:21.161Z,15.00
2018-08-11T20:49:49.445Z,15.10
2018-08-11T20:52:17.612Z,15.00
2018-08-11T20:54:45.785Z,15.00
2018-08-11T20:57:14.057Z,14.90
2018-08-11T20:59:42.231Z,14.90
2018-08-11T21:02:11.045Z,14.90
2018-08-11T21:04:39.239Z,14.90
2018-08-11T21:07:07.555Z,14.90
2018-08-11T21:09:35.724Z,14.80
2018-08-11T21:12:04.202Z,14.80
2018-08-11T21:14:32.471Z,14.80
2018-08-11T21:17:00.668Z,14.80
2018-08-11T21:19:28.845Z,14.70
2018-08-11T21:21:57.942Z,14.70
2018-08-11T21:24:26.229Z,14.80
2018-08-11T21:26:54.501Z,14.80
2018-08-11T21:29:22.708Z,14.90
2018-08-11T21:31:50.928Z,14.90
2018-08-11T21:34:19.110Z,15.00
2018-08-11T21:36:47.259Z,15.10
2018-08-11T21:39:15.515Z,15.20
2018-08-11T21:41:43.799Z,15.20
2018-08-11T21:44:12.908Z,15.30
2018-08-11T21:46:41.112Z,15.40
2018-08-11T21:49:10.570Z,15.40
2018-08-11T21:51:38.758Z,15.50
2018-08-11T21:54:07.482Z,15.60
2018-08-11T21:56:35.664Z,15.60
2018-08-11T21:59:03.972Z,15.70
2018-08-11T22:01:32.156Z,15.70
2018-08-11T22:04:00.268Z,15.70
2018-08-11T22:06:28.611Z,15.60
2018-08-11T22:08:56.781Z,15.60
2018-08-11T22:11:25.008Z,15.50
2018-08-11T22:13:53.224Z,15.40
2018-08-11T22:16:21.458Z,15.40
2018-08-11T22:18:49.729Z,15.40
2018-08-11T22:21:18.038Z,15.30
2018-08-11T22:23:46.224Z,15.20
2018-08-11T22:26:14.527Z,15.20
2018-08-11T22:28:42.720Z,15.20
2018-08-11T22:31:10.892Z,15.20
2018-08-11T22:33:39.104Z,15.10
2018-08-11T22:36:07.316Z,15.10
2018-08-11T22:38:35.497Z,15.10
2018-08-11T22:41:03.733Z,15.00
2018-08-11T22:43:31.927Z,15.00
2018-08-11T22:46:00.223Z,15.00
2018-08-11T22:48:28.457Z,14.90
2018-08-11T22:50:56.908Z,14.90
2018-08-11T22:53:25.136Z,14.90
2018-08-11T22:55:53.316Z,14.90
2018-08-11T22:58:21.565Z,14.80
2018-08-11T23:00:49.873Z,14.80
2018-08-11T23:03:18.662Z,14.80
2018-08-11T23:05:47.107Z,14.80
2018-08-11T23:08:15.328Z,14.70
2018-08-11T23:10:43.534Z,14.70
2018-08-11T23:13:11.713Z,14.80
2018-08-11T23:15:40.152Z,14.70
2018-08-11T23:18:08.330Z,14.70
2018-08-11T23:20:36.842Z,14.80
2018-08-11T23:23:05.087Z,14.70
2018-08-11T23:25:33.264Z,14.70
2018-08-11T23:28:01.644Z,14.80
2018-08-11T23:30:29.965Z,14.80
2018-08-11T23:32:58.288Z,14.90
2018-08-11T23:35:26.898Z,15.00
2018-08-11T23:37:55.218Z,15.10
2018-08-11T23:40:23.691Z,15.20
2018-08-11T23:42:51.917Z,15.20
2018-08-11T23:45:20.304Z,15.30
2018-08-11T23:47:48.683Z,15.40
2018-08-11T23:50:16.962Z,15.40
2018-08-11T23:52:45.456Z,15.40
2018-08-11T23:55:14.544Z,15.50
2018-08-11T23:57:44.303Z,15.60
